createdAt,value
2019-04-01T00:01:35.043Z,36.58
2019-04-01T00:04:08.606Z,37.23
2019-04-01T00:06:42.198Z,36.15
2019-04-01T00:09:15.496Z,34.73
2019-04-01T00:11:48.912Z,35.35
2019-04-01T00:14:23.201Z,40.55
2019-04-01T00:16:56.718Z,38.90
2019-04-01T00:19:30.849Z,42.17
2019-04-01T00:22:04.654Z,42.45
2019-04-01T00:24:39.079Z,42.35
2019-04-01T00:27:12.654Z,41.25
2019-04-01T00:29:46.460Z,40.03
2019-04-01T00:32:20.530Z,38.00
2019-04-01T00:34:53.991Z,39.13
2019-04-01T00:37:27.173Z,39.05
2019-04-01T00:40:00.872Z,38.60
2019-04-01T00:42:41.989Z,36.28
2019-04-01T00:45:17.012Z,41.80
2019-04-01T00:47:50.089Z,43.00
2019-04-01T00:50:23.999Z,42.17
2019-04-01T00:52:57.521Z,37.00
2019-04-01T00:55:30.900Z,41.08
2019-04-01T00:58:04.175Z,32.20
2019-04-01T01:00:37.409Z,38.30
2019-04-01T01:03:13.174Z,40.55
2019-04-01T01:05:46.642Z,39.03
2019-04-01T01:08:20.263Z,39.85
2019-04-01T01:10:55.242Z,39.00
2019-04-01T01:13:28.760Z,32.80
2019-04-01T01:16:02.117Z,38.17
2019-04-01T01:18:36.012Z,36.13
2019-04-01T01:21:09.465Z,38.53
2019-04-01T01:23:42.704Z,26.20
2019-04-01T01:26:16.406Z,15.88
2019-04-01T01:28:49.804Z,8.18
2019-04-01T01:31:23.268Z,8.65
2019-04-01T01:33:56.623Z,7.58
2019-04-01T01:36:30.785Z,6.25
2019-04-01T01:39:04.038Z,6.12
2019-04-01T01:41:38.416Z,5.83
2019-04-01T01:44:11.772Z,5.42
2019-04-01T01:46:45.809Z,6.10
2019-04-01T01:49:19.099Z,5.35
2019-04-01T01:51:52.682Z,7.25
2019-04-01T01:54:26.553Z,9.45
2019-04-01T01:57:01.293Z,7.72
2019-04-01T01:59:35.252Z,8.35
2019-04-01T02:02:09.244Z,6.25
2019-04-01T02:04:42.537Z,5.97
2019-04-01T02:07:18.630Z,6.33
2019-04-01T02:09:51.999Z,6.03
2019-04-01T02:12:26.462Z,4.35
2019-04-01T02:15:00.793Z,3.22
2019-04-01T02:17:34.760Z,3.75
2019-04-01T02:20:08.769Z,6.97
2019-04-01T02:22:47.038Z,5.42
2019-04-01T02:25:29.301Z,5.05
2019-04-01T02:28:03.292Z,4.30
2019-04-01T02:30:36.557Z,4.67
2019-04-01T02:33:10.628Z,5.30
2019-04-01T02:35:46.806Z,5.37
2019-04-01T02:38:20.666Z,8.60
2019-04-01T02:40:53.912Z,11.12
2019-04-01T02:43:27.870Z,10.58
2019-04-01T02:46:01.801Z,12.65
2019-04-01T02:48:35.503Z,14.23
2019-04-01T02:51:13.102Z,13.20
2019-04-01T02:53:47.185Z,12.55
2019-04-01T02:56:20.694Z,13.88
2019-04-01T02:58:55.128Z,10.88
2019-04-01T03:01:28.446Z,13.30
2019-04-01T03:04:04.644Z,12.50
2019-04-01T03:06:36.871Z,14.38
2019-04-01T03:09:10.598Z,14.18
2019-04-01T03:11:43.762Z,15.45
2019-04-01T03:14:18.890Z,12.18
2019-04-01T03:16:53.205Z,16.90
2019-04-01T03:19:27.062Z,14.38
2019-04-01T03:22:00.889Z,18.17
2019-04-01T03:24:34.671Z,18.40
2019-04-01T03:27:11.034Z,21.10
2019-04-01T03:29:44.757Z,20.12
2019-04-01T03:32:20.221Z,23.75
2019-04-01T03:34:54.486Z,24.20
2019-04-01T03:37:28.352Z,19.75
2019-04-01T03:40:01.739Z,26.55
2019-04-01T03:42:35.419Z,25.35
2019-04-01T03:45:10.033Z,26.17
2019-04-01T03:47:43.499Z,27.00
2019-04-01T03:50:17.606Z,26.07
2019-04-01T03:52:51.487Z,26.65
2019-04-01T03:55:25.397Z,22.65
2019-04-01T03:57:58.818Z,22.82
2019-04-01T04:00:32.072Z,26.73
2019-04-01T04:03:05.382Z,26.82
2019-04-01T04:05:45.641Z,27.62
2019-04-01T04:08:19.349Z,27.40
2019-04-01T04:10:52.568Z,28.42
2019-04-01T04:13:26.308Z,29.12
2019-04-01T04:15:59.609Z,28.50
2019-04-01T04:18:35.427Z,27.42
2019-04-01T04:21:08.590Z,29.45
2019-04-01T04:23:42.000Z,28.15
2019-04-01T04:26:15.155Z,25.65
2019-04-01T04:28:58.117Z,26.17
2019-04-01T04:31:31.342Z,26.87
2019-04-01T04:34:05.171Z,28.05
2019-04-01T04:36:39.394Z,29.30
2019-04-01T04:39:12.845Z,28.35
2019-04-01T04:41:46.214Z,30.37
2019-04-01T04:44:20.007Z,28.50
2019-04-01T04:46:53.249Z,25.55
2019-04-01T04:49:26.963Z,26.48
2019-04-01T04:52:00.278Z,26.68
2019-04-01T04:54:34.162Z,10.13
2019-04-01T04:57:07.355Z,25.40
2019-04-01T04:59:41.444Z,19.50
2019-04-01T05:02:14.820Z,23.80
2019-04-01T05:04:48.474Z,23.52
2019-04-01T05:07:21.729Z,24.30
2019-04-01T05:09:55.434Z,23.87
2019-04-01T05:12:28.883Z,23.25
2019-04-01T05:15:03.048Z,22.67
2019-04-01T05:17:36.488Z,24.63
2019-04-01T05:20:10.608Z,22.85
2019-04-01T05:22:44.067Z,26.20
2019-04-01T05:25:19.941Z,23.60
2019-04-01T05:27:54.336Z,27.37
2019-04-01T05:30:28.925Z,27.32
2019-04-01T05:33:05.352Z,23.62
2019-04-01T05:35:39.375Z,26.50
2019-04-01T05:38:13.066Z,24.18
2019-04-01T05:40:47.821Z,26.45
2019-04-01T05:43:21.292Z,24.80
2019-04-01T05:45:56.238Z,24.98
2019-04-01T05:48:35.015Z,26.85
2019-04-01T05:54:05.140Z,26.85
2019-04-01T05:56:41.736Z,26.02
2019-04-01T05:59:15.445Z,26.30
2019-04-01T06:01:50.011Z,25.20
2019-04-01T06:04:25.448Z,23.73
2019-04-01T06:07:11.687Z,27.60
2019-04-01T06:09:44.887Z,27.30
2019-04-01T06:12:18.356Z,27.32
2019-04-01T06:14:51.974Z,27.22
2019-04-01T06:17:25.683Z,29.20
2019-04-01T06:19:59.192Z,27.77
2019-04-01T06:22:33.898Z,27.65
2019-04-01T06:25:08.586Z,28.70
2019-04-01T06:27:42.558Z,30.50
2019-04-01T06:30:16.750Z,29.30
2019-04-01T06:32:50.051Z,29.42
2019-04-01T06:35:23.529Z,26.68
2019-04-01T06:37:56.807Z,29.65
2019-04-01T06:40:30.244Z,29.98
2019-04-01T06:43:04.878Z,29.87
2019-04-01T06:45:38.402Z,25.32
2019-04-01T06:48:11.960Z,27.15
2019-04-01T06:50:45.377Z,26.97
2019-04-01T06:53:19.166Z,25.27
2019-04-01T06:55:52.811Z,25.68
2019-04-01T06:58:26.249Z,25.90
2019-04-01T07:00:59.933Z,26.30
2019-04-01T07:03:33.143Z,24.92
2019-04-01T07:06:07.068Z,26.65
2019-04-01T07:08:40.482Z,26.17
2019-04-01T07:11:13.747Z,25.88
2019-04-01T07:13:47.565Z,26.65
2019-04-01T07:16:21.267Z,27.95
2019-04-01T07:18:54.528Z,28.52
2019-04-01T07:21:27.859Z,27.90
2019-04-01T07:24:02.644Z,27.37
2019-04-01T07:26:36.075Z,32.15
2019-04-01T07:29:09.638Z,29.10
2019-04-01T07:31:43.201Z,27.00
2019-04-01T07:34:16.698Z,28.65
2019-04-01T07:36:50.330Z,29.70
2019-04-01T07:39:23.955Z,29.40
2019-04-01T07:41:57.438Z,28.60
2019-04-01T07:44:31.154Z,17.70
2019-04-01T07:47:04.675Z,28.55
2019-04-01T07:49:39.228Z,29.70
2019-04-01T07:52:12.824Z,28.32
2019-04-01T07:54:46.126Z,32.33
2019-04-01T07:57:19.607Z,32.23
2019-04-01T07:59:56.681Z,30.43
2019-04-01T08:02:28.287Z,31.93
2019-04-01T08:05:04.944Z,32.55
2019-04-01T08:07:37.992Z,34.00
2019-04-01T08:10:12.225Z,39.58
2019-04-01T08:12:47.858Z,37.42
2019-04-01T08:15:21.619Z,40.30
2019-04-01T08:17:55.097Z,42.10
2019-04-01T08:20:28.711Z,39.67
2019-04-01T08:23:02.495Z,38.78
2019-04-01T08:25:36.420Z,39.83
2019-04-01T08:28:11.299Z,42.00
2019-04-01T08:30:45.617Z,41.73
2019-04-01T08:33:19.569Z,44.18
2019-04-01T08:35:53.435Z,41.98
2019-04-01T08:38:27.585Z,39.95
2019-04-01T08:41:02.318Z,45.03
2019-04-01T08:43:37.232Z,42.85
2019-04-01T08:46:10.637Z,48.20
2019-04-01T08:48:45.718Z,50.52
2019-04-01T08:51:21.913Z,50.20
2019-04-01T08:53:55.980Z,48.73
2019-04-01T08:56:32.276Z,46.50
2019-04-01T08:59:12.411Z,46.25
2019-04-01T09:01:50.476Z,47.80
2019-04-01T09:04:23.593Z,50.08
2019-04-01T09:07:01.940Z,54.73
2019-04-01T09:09:50.355Z,53.75
2019-04-01T09:12:24.076Z,56.33
2019-04-01T09:14:59.364Z,55.63
2019-04-01T09:17:33.976Z,55.15
2019-04-01T09:20:07.847Z,55.92
2019-04-01T09:22:41.896Z,56.25
2019-04-01T09:25:15.429Z,59.18
2019-04-01T09:27:48.757Z,57.95
2019-04-01T09:30:23.774Z,53.90
2019-04-01T09:33:03.411Z,48.95
2019-04-01T09:35:40.623Z,53.78
2019-04-01T09:38:11.659Z,59.98
2019-04-01T09:40:45.730Z,58.50
2019-04-01T09:43:19.188Z,55.63
2019-04-01T09:45:52.979Z,54.10
2019-04-01T09:48:26.882Z,54.83
2019-04-01T09:51:00.581Z,63.52
2019-04-01T09:53:33.989Z,59.65
2019-04-01T09:56:07.635Z,62.85
2019-04-01T09:58:58.940Z,49.93
2019-04-01T10:01:53.663Z,43.98
2019-04-01T10:04:26.986Z,43.73
2019-04-01T10:07:00.951Z,54.88
2019-04-01T10:09:35.675Z,54.35
2019-04-01T10:12:09.953Z,43.15
2019-04-01T10:14:43.366Z,56.40
2019-04-01T10:17:18.814Z,59.80
2019-04-01T10:19:52.422Z,61.23
2019-04-01T10:22:25.927Z,53.63
2019-04-01T10:24:59.677Z,60.23
2019-04-01T10:27:33.160Z,51.28
2019-04-01T10:30:07.642Z,51.48
2019-04-01T10:32:41.685Z,49.27
2019-04-01T10:35:19.945Z,51.40
2019-04-01T10:37:54.212Z,50.10
2019-04-01T10:40:27.611Z,40.65
2019-04-01T10:43:04.886Z,47.17
2019-04-01T10:45:38.361Z,38.53
2019-04-01T10:48:12.034Z,40.30
2019-04-01T10:53:40.345Z,44.80
2019-04-01T10:56:14.071Z,41.08
2019-04-01T10:58:48.160Z,36.60
2019-04-01T11:01:21.469Z,38.95
2019-04-01T11:04:02.031Z,38.08
2019-04-01T11:06:37.544Z,42.67
2019-04-01T11:09:13.371Z,41.65
2019-04-01T11:11:59.436Z,39.23
2019-04-01T11:14:35.815Z,43.60
2019-04-01T11:17:09.382Z,46.55
2019-04-01T11:19:44.649Z,40.55
2019-04-01T11:22:20.847Z,46.77
2019-04-01T11:27:50.566Z,44.85
2019-04-01T11:30:24.403Z,43.98
2019-04-01T11:32:59.785Z,34.73
2019-04-01T11:35:39.476Z,38.73
2019-04-01T11:38:12.879Z,44.30
2019-04-01T11:40:47.827Z,41.83
2019-04-01T11:43:23.452Z,44.65
2019-04-01T11:45:57.214Z,45.20
2019-04-01T11:48:30.499Z,44.83
2019-04-01T11:51:07.170Z,45.33
2019-04-01T11:53:41.747Z,41.18
2019-04-01T11:56:15.110Z,37.67
2019-04-01T11:58:49.070Z,39.58
2019-04-01T12:01:22.360Z,37.95
2019-04-01T12:03:55.671Z,40.20
2019-04-01T12:06:29.296Z,37.15
2019-04-01T12:09:02.698Z,35.50
2019-04-01T12:11:36.668Z,34.00
2019-04-01T12:14:11.153Z,33.73
2019-04-01T12:16:44.678Z,32.15
2019-04-01T12:19:19.788Z,27.05
2019-04-01T12:21:53.567Z,27.07
2019-04-01T12:24:28.424Z,25.45
2019-04-01T12:27:02.337Z,26.60
2019-04-01T12:29:35.573Z,24.98
2019-04-01T12:32:10.721Z,24.45
2019-04-01T12:34:44.112Z,24.23
2019-04-01T12:37:18.160Z,24.30
2019-04-01T12:39:51.377Z,24.32
2019-04-01T12:42:26.258Z,24.50
2019-04-01T12:44:59.779Z,21.75
2019-04-01T12:47:33.336Z,24.57
2019-04-01T12:50:09.161Z,22.35
2019-04-01T12:52:42.812Z,21.27
2019-04-01T12:55:16.341Z,25.08
2019-04-01T12:57:50.926Z,25.20
2019-04-01T13:00:28.775Z,26.17
2019-04-01T13:03:00.145Z,25.12
2019-04-01T13:05:34.012Z,25.80
2019-04-01T13:08:08.123Z,24.50
2019-04-01T13:10:43.810Z,21.77
2019-04-01T13:13:18.039Z,22.20
2019-04-01T13:15:51.350Z,22.48
2019-04-01T13:18:25.528Z,23.50
2019-04-01T13:20:58.839Z,23.67
2019-04-01T13:23:32.545Z,24.25
2019-04-01T13:26:06.537Z,23.60
2019-04-01T13:28:42.499Z,17.98
2019-04-01T13:31:16.014Z,22.15
2019-04-01T13:33:50.481Z,25.37
2019-04-01T13:36:24.629Z,24.65
2019-04-01T13:38:59.145Z,20.88
2019-04-01T13:41:42.218Z,24.40
2019-04-01T13:44:08.937Z,20.97
2019-04-01T13:46:41.678Z,22.48
2019-04-01T13:49:16.455Z,23.27
2019-04-01T13:51:49.769Z,23.10
2019-04-01T13:54:24.289Z,23.05
2019-04-01T13:56:58.749Z,21.82
2019-04-01T13:59:32.573Z,26.10
2019-04-01T14:02:07.758Z,29.77
2019-04-01T14:04:42.343Z,32.38
2019-04-01T14:07:24.979Z,30.20
2019-04-01T14:09:58.785Z,29.85
2019-04-01T14:12:33.486Z,28.85
2019-04-01T14:15:10.796Z,28.75
2019-04-01T14:17:43.882Z,28.35
2019-04-01T14:20:17.507Z,29.48
2019-04-01T14:22:53.475Z,31.68
2019-04-01T14:25:35.004Z,30.77
2019-04-01T14:28:09.429Z,31.02
2019-04-01T14:30:46.566Z,32.28
2019-04-01T14:33:26.046Z,31.82
2019-04-01T14:36:00.662Z,33.78
2019-04-01T14:38:36.038Z,34.60
2019-04-01T14:41:12.909Z,32.17
2019-04-01T14:43:47.922Z,36.75
2019-04-01T14:46:24.855Z,34.83
2019-04-01T14:49:00.824Z,34.60
2019-04-01T14:51:36.331Z,30.70
2019-04-01T14:54:11.030Z,36.85
2019-04-01T14:56:47.547Z,33.33
2019-04-01T14:59:20.885Z,36.53
2019-04-01T15:01:54.670Z,36.38
2019-04-01T15:04:30.920Z,37.10
2019-04-01T15:07:03.723Z,37.93
2019-04-01T15:09:41.227Z,39.45
2019-04-01T15:12:15.153Z,40.52
2019-04-01T15:14:49.566Z,37.83
2019-04-01T15:17:24.462Z,38.33
2019-04-01T15:19:57.934Z,40.03
2019-04-01T15:22:33.051Z,39.63
2019-04-01T15:25:10.976Z,38.45
2019-04-01T15:27:45.576Z,37.83
2019-04-01T15:30:19.768Z,38.92
2019-04-01T15:32:54.737Z,35.65
2019-04-01T15:35:28.447Z,39.08
2019-04-01T15:38:06.351Z,38.80
2019-04-01T15:40:41.088Z,43.00
2019-04-01T15:43:19.889Z,42.10
2019-04-01T15:45:55.158Z,38.20
2019-04-01T15:48:29.557Z,44.05
2019-04-01T15:51:03.838Z,40.55
2019-04-01T15:53:37.007Z,39.25
2019-04-01T15:56:11.859Z,41.02
2019-04-01T15:58:50.632Z,40.03
2019-04-01T16:01:23.560Z,43.25
2019-04-01T16:03:56.992Z,43.52
2019-04-01T16:06:31.220Z,44.50
2019-04-01T16:09:16.229Z,45.90
2019-04-01T16:11:49.346Z,43.05
2019-04-01T16:14:24.169Z,46.02
2019-04-01T16:17:08.288Z,46.70
2019-04-01T16:19:42.834Z,46.02
2019-04-01T16:22:25.592Z,50.80
2019-04-01T16:31:21.093Z,48.77
2019-04-01T16:33:50.638Z,41.37
2019-04-01T16:36:33.353Z,45.98
2019-04-01T16:41:52.656Z,49.90
2019-04-01T16:44:26.081Z,43.50
2019-04-01T16:46:59.620Z,44.83
2019-04-01T16:49:37.865Z,48.10
2019-04-01T16:52:15.412Z,49.33
2019-04-01T16:54:52.091Z,44.48
2019-04-01T16:57:24.782Z,49.20
2019-04-01T17:00:01.580Z,48.38
2019-04-01T17:02:50.190Z,50.83
2019-04-01T17:05:19.286Z,51.45
2019-04-01T17:07:52.965Z,50.48
2019-04-01T17:10:30.019Z,50.65
2019-04-01T17:13:03.501Z,48.85
2019-04-01T17:15:43.699Z,50.45
2019-04-01T17:18:22.411Z,48.70
2019-04-01T17:20:57.191Z,48.28
2019-04-01T17:23:30.759Z,51.25
2019-04-01T17:26:09.870Z,49.10
2019-04-01T17:28:43.232Z,49.63
2019-04-01T17:31:18.386Z,47.83
2019-04-01T17:33:52.444Z,48.33
2019-04-01T17:36:27.854Z,48.10
2019-04-01T17:39:05.243Z,49.65
2019-04-01T17:41:40.073Z,50.55
2019-04-01T17:44:14.177Z,49.40
2019-04-01T17:46:48.223Z,50.52
2019-04-01T17:49:21.425Z,53.55
2019-04-01T17:51:56.690Z,44.48
2019-04-01T17:54:31.435Z,48.08
2019-04-01T17:57:05.286Z,50.33
2019-04-01T17:59:39.173Z,50.45
2019-04-01T18:02:15.010Z,51.37
2019-04-01T18:04:48.227Z,50.55
2019-04-01T18:07:24.324Z,53.60
2019-04-01T18:09:56.284Z,53.23
2019-04-01T18:12:30.026Z,49.85
2019-04-01T18:15:03.375Z,49.63
2019-04-01T18:17:37.502Z,50.45
2019-04-01T18:20:11.054Z,49.25
2019-04-01T18:22:47.575Z,52.58
2019-04-01T18:25:21.136Z,53.45
2019-04-01T18:27:55.636Z,55.12
2019-04-01T18:30:29.351Z,54.80
2019-04-01T18:33:03.100Z,55.92
2019-04-01T18:35:36.445Z,54.75
2019-04-01T18:38:10.123Z,57.43
2019-04-01T18:40:43.416Z,61.45
2019-04-01T18:43:16.744Z,68.87
2019-04-01T18:45:50.357Z,80.50
2019-04-01T18:48:27.653Z,71.97
2019-04-01T18:51:02.352Z,73.47
2019-04-01T18:53:36.951Z,83.10
2019-04-01T18:56:10.150Z,55.58
2019-04-01T18:58:43.433Z,53.65
2019-04-01T19:01:16.696Z,61.02
2019-04-01T19:03:50.348Z,61.08
2019-04-01T19:06:25.021Z,13.13
2019-04-01T19:09:08.789Z,28.30
2019-04-01T19:11:33.826Z,37.83
2019-04-01T19:14:08.454Z,34.40
2019-04-01T19:16:42.993Z,37.85
2019-04-01T19:19:16.390Z,38.92
2019-04-01T19:21:49.730Z,37.63
2019-04-01T19:24:23.050Z,33.65
2019-04-01T19:26:56.712Z,30.50
2019-04-01T19:29:30.337Z,34.53
2019-04-01T19:32:08.506Z,32.42
2019-04-01T19:34:43.350Z,31.50
2019-04-01T19:37:18.368Z,32.93
2019-04-01T19:39:52.788Z,29.87
2019-04-01T19:42:26.418Z,33.55
2019-04-01T19:45:02.781Z,36.30
2019-04-01T19:47:36.572Z,34.98
2019-04-01T19:50:13.894Z,36.23
2019-04-01T19:52:46.150Z,37.70
2019-04-01T19:55:19.362Z,35.48
2019-04-01T19:57:53.074Z,37.80
2019-04-01T20:00:28.005Z,34.92
2019-04-01T20:03:01.133Z,37.30
2019-04-01T20:05:34.384Z,35.45
2019-04-01T20:08:08.323Z,35.60
2019-04-01T20:10:41.527Z,34.27
2019-04-01T20:13:15.528Z,34.90
2019-04-01T20:15:48.746Z,36.42
2019-04-01T20:18:22.459Z,44.80
2019-04-01T20:20:55.665Z,50.03
2019-04-01T20:23:29.890Z,58.08
2019-04-01T20:26:03.189Z,62.15
2019-04-01T20:28:36.900Z,67.58
2019-04-01T20:31:12.862Z,72.67
2019-04-01T20:33:49.169Z,75.97
2019-04-01T20:36:28.700Z,69.90
2019-04-01T20:38:57.871Z,63.90
2019-04-01T20:41:31.098Z,65.37
2019-04-01T20:44:04.716Z,58.75
2019-04-01T20:46:39.085Z,57.45
2019-04-01T20:49:13.120Z,52.33
2019-04-01T20:51:46.910Z,50.03
2019-04-01T20:54:20.161Z,48.85
2019-04-01T20:56:53.367Z,52.78
2019-04-01T20:59:26.944Z,50.50
2019-04-01T21:02:00.228Z,46.53
2019-04-01T21:04:34.178Z,45.48
2019-04-01T21:07:09.785Z,47.90
2019-04-01T21:09:42.824Z,46.13
2019-04-01T21:12:20.048Z,44.13
2019-04-01T21:14:56.169Z,44.18
2019-04-01T21:17:29.639Z,43.50
2019-04-01T21:20:03.691Z,45.38
2019-04-01T21:22:37.388Z,40.85
2019-04-01T21:25:11.399Z,42.73
2019-04-01T21:27:45.126Z,43.83
2019-04-01T21:30:20.543Z,42.90
2019-04-01T21:32:54.526Z,43.42
2019-04-01T21:35:29.161Z,44.20
2019-04-01T21:38:03.180Z,43.60
2019-04-01T21:40:37.803Z,43.65
2019-04-01T21:43:12.197Z,44.08
2019-04-01T21:45:45.515Z,45.58
2019-04-01T21:48:19.103Z,43.85
2019-04-01T21:50:52.886Z,44.73
2019-04-01T21:53:26.402Z,44.38
2019-04-01T21:55:59.877Z,44.75
2019-04-01T21:58:36.269Z,44.27
2019-04-01T22:01:11.051Z,45.03
2019-04-01T22:03:45.671Z,45.03
2019-04-01T22:06:19.726Z,45.10
2019-04-01T22:08:53.352Z,45.03
2019-04-01T22:11:26.682Z,44.18
2019-04-01T22:13:59.848Z,44.77
2019-04-01T22:16:33.535Z,51.25
2019-04-01T22:19:06.932Z,52.03
2019-04-01T22:21:40.786Z,50.52
2019-04-01T22:24:14.052Z,52.27
2019-04-01T22:26:47.722Z,56.10
2019-04-01T22:29:20.903Z,55.70
2019-04-01T22:31:54.386Z,54.53
2019-04-01T22:34:27.605Z,57.90
2019-04-01T22:37:01.258Z,55.38
2019-04-01T22:39:34.437Z,50.40
2019-04-01T22:42:08.169Z,54.13
2019-04-01T22:44:41.383Z,51.68
2019-04-01T22:47:16.309Z,53.45
2019-04-01T22:49:49.518Z,52.53
2019-04-01T22:52:22.886Z,52.45
2019-04-01T22:54:56.786Z,54.77
2019-04-01T22:57:30.327Z,56.58
2019-04-01T23:00:04.173Z,52.75
2019-04-01T23:02:38.708Z,70.40
2019-04-01T23:05:12.006Z,70.55
2019-04-01T23:07:45.669Z,70.32
2019-04-01T23:10:19.162Z,77.70
2019-04-01T23:12:53.086Z,72.65
2019-04-01T23:15:26.470Z,74.58
2019-04-01T23:18:00.171Z,59.88
2019-04-01T23:20:33.866Z,63.58
2019-04-01T23:23:08.870Z,60.05
2019-04-01T23:25:41.995Z,61.23
2019-04-01T23:28:15.454Z,55.05
2019-04-01T23:30:49.044Z,56.63
2019-04-01T23:33:25.124Z,61.20
2019-04-01T23:35:59.073Z,61.35
2019-04-01T23:38:37.009Z,58.73
2019-04-01T23:41:11.253Z,60.73
2019-04-01T23:43:44.734Z,56.45
2019-04-01T23:46:19.136Z,57.58
2019-04-01T23:48:52.918Z,57.50
2019-04-01T23:51:26.130Z,57.60
2019-04-01T23:54:00.115Z,59.13
2019-04-01T23:56:33.344Z,56.42
2019-04-01T23:59:07.020Z,56.18
